Time;durP1;ratioP1;P1;durP2;ratioP2;P2;SDS_P1;SDS_P2;PMS_P1;PMS_P2;Temp;Humidity;BMP_temperature;BMP_pressure;BME280_temperature;BME280_humidity;BME280_pressure;Samples;Min_cycle;Max_cycle;Signal;HPM_P1;HPM_P2
2022/08/18 00:01:01;;;;;;;36.07;26.87;;;;;;;-145.18;100.00;46660.41;5050534;28;20028;-72
2022/08/18 00:03:28;;;;;;;36.67;27.77;;;;;;;-145.18;100.00;46660.41;5050222;28;20541;-72
2022/08/18 00:05:54;;;;;;;32.53;26.40;;;;;;;-145.18;100.00;46656.50;5050901;28;20064;-72
2022/08/18 00:08:19;;;;;;;31.07;25.07;;;;;;;-145.18;100.00;46660.41;5050971;28;20116;-72
2022/08/18 00:10:44;;;;;;;31.47;26.63;;;;;;;-145.18;100.00;46658.44;5050780;28;20504;-72
2022/08/18 00:13:10;;;;;;;30.53;26.17;;;;;;;-145.18;100.00;46660.41;5050493;28;20106;-72
2022/08/18 00:15:35;;;;;;;34.77;25.73;;;;;;;-145.18;100.00;46660.41;5050748;28;20025;-72
2022/08/18 00:18:00;;;;;;;32.63;25.53;;;;;;;-145.18;100.00;46658.44;5050782;28;20700;-72
2022/08/18 00:20:26;;;;;;;35.17;26.80;;;;;;;-145.18;100.00;46660.41;5051139;28;20061;-72
2022/08/18 00:22:52;;;;;;;29.97;25.73;;;;;;;-145.18;100.00;46660.41;5049993;28;20061;-72
2022/08/18 00:25:19;;;;;;;28.93;25.03;;;;;;;-145.18;100.00;46660.41;5050989;28;20063;-72
2022/08/18 00:27:44;;;;;;;31.93;26.27;;;;;;;-145.18;100.00;46660.41;5050443;28;20403;-72
2022/08/18 00:30:17;;;;;;;33.60;25.17;;;;;;;-145.18;100.00;46660.41;5051030;28;20051;-72
2022/08/18 00:32:47;;;;;;;35.20;26.00;;;;;;;-145.18;100.00;46660.41;5050161;28;20041;-72
2022/08/18 00:35:25;;;;;;;32.67;25.93;;;;;;;-145.18;100.00;46660.41;5050449;28;20033;-72
2022/08/18 00:37:51;;;;;;;27.90;24.37;;;;;;;-145.18;100.00;46660.41;5050234;28;20035;-72
2022/08/18 00:40:19;;;;;;;33.53;26.23;;;;;;;-145.18;100.00;46660.41;5050491;28;20051;-72
2022/08/18 00:42:49;;;;;;;32.73;27.20;;;;;;;-145.18;100.00;46660.41;5049668;28;20501;-72
2022/08/18 00:45:22;;;;;;;39.20;27.37;;;;;;;-145.18;100.00;46660.41;5050388;28;20458;-71
2022/08/18 00:47:48;;;;;;;36.33;29.27;;;;;;;-145.18;100.00;46660.41;5049904;28;20059;-72
2022/08/18 00:50:20;;;;;;;30.87;27.13;;;;;;;-145.18;100.00;46660.41;5050550;28;20061;-72
2022/08/18 00:52:52;;;;;;;32.00;26.57;;;;;;;-145.18;100.00;46660.41;5049828;28;20036;-72
2022/08/18 00:55:19;;;;;;;32.57;26.17;;;;;;;-145.18;100.00;46660.41;5050169;28;20064;-72
2022/08/18 00:57:47;;;;;;;30.50;25.23;;;;;;;-145.18;100.00;46660.41;5048457;28;20492;-72
2022/08/18 01:00:13;;;;;;;31.63;27.13;;;;;;;-145.18;100.00;46660.41;5050143;28;20064;-72
2022/08/18 01:02:43;;;;;;;34.17;27.10;;;;;;;-145.18;100.00;46660.41;5049633;28;20047;-72
2022/08/18 01:05:20;;;;;;;30.73;26.47;;;;;;;-145.18;100.00;46660.41;5050536;28;20056;-72
2022/08/18 01:07:47;;;;;;;35.17;27.17;;;;;;;-145.18;100.00;46658.44;5049860;28;20043;-72
2022/08/18 01:10:19;;;;;;;31.87;25.60;;;;;;;-145.18;100.00;46660.41;5049219;28;20033;-72
2022/08/18 01:12:51;;;;;;;30.63;24.80;;;;;;;-145.18;100.00;46658.44;5049388;28;20084;-72
2022/08/18 01:15:18;;;;;;;33.63;26.80;;;;;;;-145.18;100.00;46660.41;5050264;28;20095;-72
2022/08/18 01:23:26;;;;;;;30.95;26.25;;;;;;;-145.18;100.00;46660.41;5050093;28;20087;-72
2022/08/18 01:26:03;;;;;;;32.87;26.50;;;;;;;-145.18;100.00;46660.41;5048833;28;20120;-72
2022/08/18 01:28:32;;;;;;;33.70;26.97;;;;;;;-145.18;100.00;46658.44;5049810;28;20032;-72
2022/08/18 01:30:59;;;;;;;35.47;26.90;;;;;;;-145.18;100.00;46660.41;5049874;28;20332;-72
2022/08/18 01:33:31;;;;;;;33.73;25.10;;;;;;;-145.18;100.00;46660.41;5049797;28;20402;-72
2022/08/18 01:35:59;;;;;;;35.60;25.70;;;;;;;-145.18;100.00;46660.41;5050128;28;20038;-72
2022/08/18 01:38:25;;;;;;;33.10;27.27;;;;;;;-145.18;100.00;46660.41;5049629;28;20029;-72
2022/08/18 01:40:53;;;;;;;34.00;27.60;;;;;;;-145.18;100.00;46660.41;5050212;28;20029;-71
2022/08/18 01:43:19;;;;;;;34.63;25.17;;;;;;;-145.18;100.00;46660.41;5049468;28;20044;-72
2022/08/18 01:45:46;;;;;;;35.30;28.00;;;;;;;-145.18;100.00;46660.41;5049871;28;20031;-72
2022/08/18 01:48:12;;;;;;;35.63;26.00;;;;;;;-145.18;100.00;46660.41;5049744;28;20068;-72
2022/08/18 01:50:40;;;;;;;33.70;24.60;;;;;;;-145.18;100.00;46660.41;5049908;28;20048;-71
2022/08/18 01:53:06;;;;;;;31.73;24.30;;;;;;;-145.18;100.00;46660.41;5049650;28;20067;-72
2022/08/18 01:55:33;;;;;;;28.40;24.20;;;;;;;-145.18;100.00;46660.41;5051616;28;20485;-72
2022/08/18 01:58:00;;;;;;;33.90;25.70;;;;;;;-145.18;100.00;46660.41;5053203;28;20459;-72
2022/08/18 02:03:14;;;;;;;37.50;25.30;;;;;;;-145.18;100.00;46660.41;5041088;23;20417;-72
2022/08/18 02:05:46;;;;;;;29.73;25.10;;;;;;;-145.18;100.00;46660.41;5022269;28;20056;-71
2022/08/18 02:08:12;;;;;;;33.53;25.40;;;;;;;-145.18;100.00;46660.41;5013597;28;20033;-71
2022/08/18 02:10:38;;;;;;;32.40;26.77;;;;;;;-145.18;100.00;46660.41;5014010;28;20113;-71
2022/08/18 02:13:04;;;;;;;34.87;25.90;;;;;;;-145.18;100.00;46660.41;5013482;28;20088;-71
2022/08/18 02:15:30;;;;;;;33.70;24.73;;;;;;;-145.18;100.00;46660.41;5013979;28;20041;-71
2022/08/18 02:17:56;;;;;;;34.13;26.00;;;;;;;-145.18;100.00;46660.41;5013344;28;20030;-71
2022/08/18 02:20:21;;;;;;;35.07;26.30;;;;;;;-145.18;100.00;46660.41;4996457;28;20079;-71
2022/08/18 02:22:47;;;;;;;39.27;27.87;;;;;;;-145.18;100.00;46660.41;5013278;28;20034;-72
2022/08/18 02:25:14;;;;;;;40.30;25.67;;;;;;;-145.18;100.00;46660.41;5014114;28;20426;-71
2022/08/18 02:27:40;;;;;;;36.80;27.37;;;;;;;-145.18;100.00;46660.41;5013391;28;20148;-71
2022/08/18 02:30:09;;;;;;;36.27;28.27;;;;;;;-145.18;100.00;46660.41;4996096;28;20125;-71
2022/08/18 02:32:35;;;;;;;39.37;27.60;;;;;;;-145.18;100.00;46658.44;5012956;28;20631;-71
2022/08/18 02:35:00;;;;;;;35.03;27.30;;;;;;;-145.18;100.00;46660.41;5013312;28;20037;-71
2022/08/18 02:37:26;;;;;;;36.20;28.70;;;;;;;-145.18;100.00;46660.41;5013363;28;20041;-71
2022/08/18 02:39:51;;;;;;;37.93;28.87;;;;;;;-145.18;100.00;46658.44;5013025;28;20763;-71
2022/08/18 02:42:17;;;;;;;36.23;28.93;;;;;;;-145.18;100.00;46619.38;5013130;28;20041;-71
2022/08/18 02:44:42;;;;;;;33.37;27.17;;;;;;;-145.18;100.00;46660.41;5013146;28;20038;-71
2022/08/18 02:47:08;;;;;;;33.43;27.50;;;;;;;-145.18;100.00;46660.41;5012466;28;20030;-71
2022/08/18 02:49:35;;;;;;;48.93;29.33;;;;;;;-145.18;100.00;46660.41;5013447;28;20034;-71
2022/08/18 02:52:01;;;;;;;33.93;28.17;;;;;;;-145.18;100.00;46660.41;5012816;28;20057;-71
2022/08/18 02:54:27;;;;;;;39.30;29.17;;;;;;;-145.18;100.00;46658.44;5013302;28;20794;-71
2022/08/18 02:56:52;;;;;;;39.43;27.27;;;;;;;-145.18;100.00;46656.50;5012208;28;20034;-71
2022/08/18 02:59:24;;;;;;;37.03;26.57;;;;;;;-145.18;100.00;46656.50;5012801;28;20046;-71
2022/08/18 03:01:51;;;;;;;35.07;26.57;;;;;;;-145.18;100.00;46656.50;5012757;28;20084;-71
2022/08/18 03:04:25;;;;;;;41.10;27.10;;;;;;;-145.18;100.00;46660.41;5017016;28;20049;-71
2022/08/18 03:06:52;;;;;;;38.73;27.13;;;;;;;-145.18;100.00;46658.44;5032050;28;20036;-71
2022/08/18 03:09:18;;;;;;;44.20;30.13;;;;;;;-145.18;100.00;46658.44;5014449;28;20439;-71
2022/08/18 03:11:44;;;;;;;37.97;29.90;;;;;;;-145.18;100.00;46660.41;5032366;28;20053;-71
2022/08/18 03:14:11;;;;;;;43.20;30.70;;;;;;;-145.18;100.00;46658.44;5032160;28;20033;-71
2022/08/18 03:16:41;;;;;;;43.50;31.47;;;;;;;-145.18;100.00;46658.44;5032051;28;20053;-71
2022/08/18 03:19:07;;;;;;;44.13;32.63;;;;;;;-145.18;100.00;46660.41;5032247;28;20108;-71
2022/08/18 03:21:36;;;;;;;46.23;30.83;;;;;;;-145.18;100.00;46660.41;5032177;28;20100;-71
2022/08/18 03:24:02;;;;;;;51.03;34.47;;;;;;;-145.18;100.00;46660.41;5031896;28;20037;-71
2022/08/18 03:26:29;;;;;;;44.57;32.47;;;;;;;-145.18;100.00;46656.50;5032232;28;20033;-71
2022/08/18 03:28:55;;;;;;;44.43;31.57;;;;;;;-145.18;100.00;46654.53;5031325;28;20025;-71
2022/08/18 03:31:23;;;;;;;53.93;34.83;;;;;;;-145.18;100.00;46658.44;5032181;28;20034;-71
2022/08/18 03:33:51;;;;;;;46.50;32.63;;;;;;;-145.18;100.00;46660.41;5031450;28;20087;-71
2022/08/18 03:36:20;;;;;;;48.57;34.93;;;;;;;-145.18;100.00;46658.44;5032139;28;20417;-71
2022/08/18 03:38:47;;;;;;;43.50;32.40;;;;;;;-145.18;100.00;46658.44;5031264;28;20064;-70
2022/08/18 03:41:15;;;;;;;44.97;34.03;;;;;;;-145.18;100.00;46660.41;5032224;28;20500;-71
2022/08/18 03:43:40;;;;;;;47.17;32.50;;;;;;;-145.18;100.00;46658.44;5031566;28;20112;-71
2022/08/18 03:46:10;;;;;;;45.40;32.57;;;;;;;-145.18;100.00;46656.50;5031815;28;20116;-71
2022/08/18 03:48:38;;;;;;;49.70;33.07;;;;;;;-145.18;100.00;46656.50;5031687;28;20080;-71
2022/08/18 03:51:23;;;;;;;48.37;34.47;;;;;;;-145.18;100.00;46656.50;5031613;28;20029;-71
2022/08/18 03:53:49;;;;;;;50.30;34.07;;;;;;;-145.18;100.00;46656.50;5031235;28;20057;-71
2022/08/18 03:56:19;;;;;;;50.13;33.43;;;;;;;-145.18;100.00;46652.59;5031677;28;20128;-71
2022/08/18 03:58:57;;;;;;;44.03;32.47;;;;;;;-145.18;100.00;46656.50;5031041;28;20389;-71
2022/08/18 04:01:25;;;;;;;41.53;30.23;;;;;;;-145.18;100.00;46658.44;5031682;28;20044;-71
2022/08/18 04:03:55;;;;;;;47.67;30.83;;;;;;;-145.18;100.00;46654.53;5030007;28;20052;-71
2022/08/18 04:06:41;;;;;;;39.73;30.53;;;;;;;-145.18;100.00;46658.44;5031755;28;20056;-71
2022/08/18 04:09:10;;;;;;;43.53;30.25;;;;;;;-145.18;100.00;46660.41;5031155;28;20381;-71
2022/08/18 04:11:37;;;;;;;46.90;30.70;;;;;;;-145.18;100.00;46660.41;5031330;28;20047;-71
2022/08/18 04:14:04;;;;;;;44.30;32.30;;;;;;;-145.18;100.00;46660.41;5013304;28;20037;-71
2022/08/18 04:16:31;;;;;;;48.67;32.80;;;;;;;-145.18;100.00;46660.41;5030804;28;20048;-71
2022/08/18 04:19:01;;;;;;;47.30;31.47;;;;;;;-145.18;100.00;46658.44;5030421;28;20029;-71
2022/08/18 04:21:27;;;;;;;40.57;30.60;;;;;;;-145.18;100.00;46660.41;5031010;28;20568;-71
2022/08/18 04:23:53;;;;;;;38.50;30.20;;;;;;;-145.18;100.00;46658.44;5030757;28;20061;-71
2022/08/18 04:26:19;;;;;;;45.30;31.13;;;;;;;-145.18;100.00;46658.44;5031312;28;20095;-72
2022/08/18 04:28:44;;;;;;;42.83;31.17;;;;;;;-145.18;100.00;46660.41;5030461;28;20040;-71
2022/08/18 04:31:12;;;;;;;42.67;31.37;;;;;;;-145.18;100.00;46658.44;5030956;28;20109;-71
2022/08/18 04:33:39;;;;;;;41.07;30.73;;;;;;;-145.18;100.00;46660.41;5026358;28;20057;-71
2022/08/18 04:36:13;;;;;;;37.00;29.00;;;;;;;-145.18;100.00;46658.44;5029681;28;20399;-71
2022/08/18 04:38:43;;;;;;;39.23;29.33;;;;;;;-145.18;100.00;46658.44;5030343;28;20107;-71
2022/08/18 04:41:11;;;;;;;41.10;30.17;;;;;;;-145.18;100.00;46656.50;5029406;28;20048;-71
2022/08/18 04:43:37;;;;;;;37.63;29.17;;;;;;;-145.18;100.00;46660.41;5028942;28;20025;-71
2022/08/18 04:46:04;;;;;;;42.13;30.60;;;;;;;-145.18;100.00;46660.41;5029006;28;20504;-71
2022/08/18 04:48:32;;;;;;;40.00;30.07;;;;;;;-145.18;100.00;46658.44;5028945;28;20122;-71
2022/08/18 04:51:01;;;;;;;39.90;30.83;;;;;;;-145.18;100.00;46660.41;5029020;28;20033;-71
2022/08/18 04:53:45;;;;;;;47.07;30.90;;;;;;;-145.18;100.00;46656.50;5027359;28;20086;-71
2022/08/18 04:56:26;;;;;;;38.33;29.53;;;;;;;-145.18;100.00;46660.41;5028312;28;20036;-71
2022/08/18 04:59:01;;;;;;;39.93;29.60;;;;;;;-145.18;100.00;46660.41;5027778;28;20052;-71
2022/08/18 05:01:29;;;;;;;33.43;26.97;;;;;;;-145.18;100.00;46660.41;5027628;28;20037;-71
2022/08/18 05:03:57;;;;;;;36.33;27.90;;;;;;;-145.18;100.00;46660.41;5028929;28;20041;-71
2022/08/18 05:06:24;;;;;;;41.13;28.10;;;;;;;-145.18;100.00;46660.41;5030653;28;20426;-71
2022/08/18 05:08:52;;;;;;;36.50;27.67;;;;;;;-145.18;100.00;46660.41;5029845;28;20026;-71
2022/08/18 05:11:18;;;;;;;35.97;27.60;;;;;;;-145.18;100.00;46660.41;5030603;28;20044;-71
2022/08/18 05:13:43;;;;;;;36.60;27.67;;;;;;;-145.18;100.00;46660.41;5029995;28;20029;-71
2022/08/18 05:16:09;;;;;;;36.57;27.57;;;;;;;-145.18;100.00;46660.41;5012272;28;20038;-71
2022/08/18 05:18:39;;;;;;;33.87;26.67;;;;;;;-145.18;100.00;46627.19;5029963;28;20058;-71
2022/08/18 05:21:10;;;;;;;38.40;27.17;;;;;;;-145.18;100.00;46660.41;5030268;28;20124;-71
2022/08/18 05:23:35;;;;;;;32.77;25.13;;;;;;;-145.18;100.00;46660.41;5030013;28;20034;-71
2022/08/18 05:26:02;;;;;;;33.93;26.03;;;;;;;-145.18;100.00;46660.41;5028834;28;20538;-71
2022/08/18 05:28:29;;;;;;;34.03;27.60;;;;;;;-145.18;100.00;46660.41;5030048;28;20034;-70
2022/08/18 05:30:56;;;;;;;39.40;30.27;;;;;;;-145.18;100.00;46625.22;5033391;28;20100;-71
2022/08/18 05:33:23;;;;;;;48.37;30.70;;;;;;;-145.18;100.00;46625.22;5033761;28;20486;-70
2022/08/18 05:35:53;;;;;;;37.63;29.33;;;;;;;-145.18;100.00;46660.41;5034076;28;20051;-71
2022/08/18 05:38:50;;;;;;;37.43;28.67;;;;;;;-145.18;100.00;46660.41;5033897;28;20026;-70
2022/08/18 05:41:36;;;;;;;39.42;31.65;;;;;;;-145.18;100.00;46625.22;5000869;28;20049;-71
2022/08/18 05:44:01;;;;;;;44.28;33.67;;;;;;;-145.18;100.00;46625.22;5033903;28;20026;-71
2022/08/18 05:46:53;;;;;;;46.37;34.23;;;;;;;-145.18;100.00;46627.19;5034196;28;20044;-70
2022/08/18 05:49:20;;;;;;;46.17;33.60;;;;;;;-145.18;100.00;46621.31;5033930;28;20216;-71
2022/08/18 05:51:53;;;;;;;41.33;32.30;;;;;;;-145.18;100.00;46629.13;5033999;28;20079;-71
2022/08/18 05:57:10;;;;;;;45.60;30.48;;;;;;;-145.18;100.00;46625.22;5033717;28;20047;-71
2022/08/18 05:59:38;;;;;;;38.37;29.57;;;;;;;-145.18;100.00;46623.28;5033220;28;20072;-71
2022/08/18 06:02:10;;;;;;;40.07;29.10;;;;;;;-145.18;100.00;46623.28;5033524;28;20467;-71
2022/08/18 06:04:52;;;;;;;36.77;26.40;;;;;;;-145.18;100.00;46629.13;5029013;28;20046;-70
2022/08/18 06:07:29;;;;;;;29.97;25.30;;;;;;;-145.18;100.00;46623.28;5033691;28;20025;-71
2022/08/18 06:09:54;;;;;;;32.77;24.00;;;;;;;-145.18;100.00;46621.31;5032774;28;20014;-71
2022/08/18 06:12:28;;;;;;;34.40;24.30;;;;;;;-145.18;100.00;46623.28;5033328;28;20026;-71
2022/08/18 06:15:16;;;;;;;33.00;24.80;;;;;;;-145.18;100.00;46623.28;5032128;28;20050;-70
2022/08/18 06:18:08;;;;;;;29.60;22.73;;;;;;;-145.18;100.00;46623.28;4993022;28;20481;-70
2022/08/18 06:21:04;;;;;;;29.77;21.30;;;;;;;-145.18;100.00;46631.09;5031726;28;20049;-71
2022/08/18 06:23:59;;;;;;;24.42;20.90;;;;;;;-145.18;100.00;46625.22;5031589;28;20757;-71
2022/08/18 06:26:33;;;;;;;32.60;20.53;;;;;;;-145.18;100.00;46625.22;5030957;28;20021;-71
2022/08/18 06:29:26;;;;;;;31.80;22.07;;;;;;;-145.18;100.00;46625.22;5030686;28;20033;-71
2022/08/18 06:32:02;;;;;;;30.83;19.93;;;;;;;-145.18;100.00;46629.13;5029815;28;20037;-71
2022/08/18 06:35:03;;;;;;;25.67;20.03;;;;;;;-145.18;100.00;46629.13;5029983;28;20037;-71
2022/08/18 06:40:27;;;;;;;18.60;14.87;;;;;;;-145.18;100.00;46631.09;5028332;28;20028;-71
2022/08/18 06:42:53;;;;;;;29.23;17.07;;;;;;;-145.18;100.00;46625.22;5031040;28;20116;-71
2022/08/18 06:45:29;;;;;;;19.40;15.17;;;;;;;-145.18;100.00;46629.13;5031766;28;20041;-71
2022/08/18 06:48:04;;;;;;;19.07;15.37;;;;;;;-145.18;100.00;46631.09;5029515;28;20017;-71
2022/08/18 06:50:41;;;;;;;;;;;;;;;-145.18;100.00;46631.09;5029513;28;20029;-71
2022/08/18 06:53:07;;;;;;;18.52;15.02;;;;;;;-145.18;100.00;46631.09;5029526;28;19921;-71
2022/08/18 06:55:42;;;;;;;23.03;15.10;;;;;;;-145.18;100.00;46635.00;5025668;28;20042;-71
2022/08/18 06:58:16;;;;;;;20.77;15.15;;;;;;;-145.18;100.00;46633.06;5026285;28;20039;-71
2022/08/18 07:00:51;;;;;;;16.90;13.67;;;;;;;-145.18;100.00;46636.94;5030938;28;20502;-71
2022/08/18 07:03:20;;;;;;;18.47;15.63;;;;;;;-145.18;100.00;46636.94;5029582;28;20056;-71
2022/08/18 07:06:05;;;;;;;22.00;15.70;;;;;;;-145.18;100.00;46636.94;5030804;28;20045;-71
2022/08/18 07:08:42;;;;;;;21.60;16.50;;;;;;;-145.18;100.00;46636.94;5029772;28;20057;-71
2022/08/18 07:11:19;;;;;;;21.00;16.50;;;;;;;-145.18;100.00;46636.94;5030722;28;20057;-71
2022/08/18 07:13:47;;;;;;;23.80;17.97;;;;;;;-145.18;100.00;46633.06;5031080;28;20036;-71
2022/08/18 07:16:28;;;;;;;20.83;17.40;;;;;;;-145.18;100.00;46638.91;5032349;28;20104;-71
2022/08/18 07:19:05;;;;;;;23.40;17.40;;;;;;;-145.18;100.00;46642.81;5031526;28;20048;-71
2022/08/18 07:21:33;;;;;;;22.77;17.80;;;;;;;-145.18;100.00;46640.88;5032505;28;20036;-71
2022/08/18 07:24:05;;;;;;;24.23;17.50;;;;;;;-145.18;100.00;46646.72;5031357;28;20053;-71
2022/08/18 07:26:50;;;;;;;19.80;14.53;;;;;;;-145.18;100.00;46646.72;5032061;28;20030;-71
2022/08/18 07:29:15;;;;;;;21.27;16.10;;;;;;;-145.18;100.00;46650.63;5031770;28;20037;-71
2022/08/18 07:31:47;;;;;;;21.50;17.20;;;;;;;-145.18;100.00;46648.69;5032182;28;20038;-71
2022/08/18 07:34:27;;;;;;;19.63;14.07;;;;;;;-145.18;100.00;46650.63;5013654;28;20375;-71
2022/08/18 07:37:00;;;;;;;18.73;14.37;;;;;;;-145.18;100.00;46648.69;5031699;28;20025;-72
2022/08/18 07:39:33;;;;;;;19.53;14.93;;;;;;;-145.18;100.00;46650.63;5031799;28;20029;-71
2022/08/18 07:42:13;;;;;;;19.07;15.03;;;;;;;-145.18;100.00;46652.59;5031993;28;20108;-71
2022/08/18 07:45:00;;;;;;;12.77;10.03;;;;;;;-145.18;100.00;46650.63;5031582;28;20087;-72
2022/08/18 07:47:30;;;;;;;13.13;8.00;;;;;;;-145.18;100.00;46656.50;5032198;28;20029;-71
2022/08/18 07:49:57;;;;;;;12.93;9.63;;;;;;;-145.18;100.00;46662.34;5031251;28;20112;-71
2022/08/18 07:52:50;;;;;;;15.73;8.83;;;;;;;-145.18;100.00;46662.34;5030256;28;20029;-71
2022/08/18 07:55:36;;;;;;;13.80;10.40;;;;;;;-145.18;100.00;46662.34;5013988;28;20164;-71
2022/08/18 07:58:30;;;;;;;14.33;11.07;;;;;;;-145.18;100.00;46656.50;5031000;28;20482;-72
2022/08/18 08:01:17;;;;;;;16.60;11.30;;;;;;;-145.18;100.00;46660.41;5031400;28;20042;-72
2022/08/18 08:04:14;;;;;;;12.70;10.57;;;;;;;-145.18;100.00;46660.41;5013370;28;20052;-71
2022/08/18 08:06:49;;;;;;;14.70;13.03;;;;;;;-145.18;100.00;46652.59;5031545;28;20457;-72
2022/08/18 08:09:29;;;;;;;15.03;13.43;;;;;;;-145.18;100.00;46656.50;5031000;28;20528;-72
2022/08/18 08:12:07;;;;;;;16.20;13.70;;;;;;;-145.18;100.00;46652.59;5030886;28;20739;-72
2022/08/18 08:14:44;;;;;;;14.40;12.20;;;;;;;-145.18;100.00;46656.50;5030670;28;20067;-72
2022/08/18 08:18:05;;;;;;;15.40;13.27;;;;;;;-145.18;100.00;46656.50;5013090;28;20076;-73
2022/08/18 08:20:38;;;;;;;17.83;13.57;;;;;;;-145.18;100.00;46656.50;4940388;28;20043;-72
2022/08/18 08:23:29;;;;;;;14.47;13.00;;;;;;;-145.18;100.00;46652.59;5029291;28;20052;-72
2022/08/18 08:25:55;;;;;;;14.50;13.00;;;;;;;-145.18;100.00;46652.59;5030880;28;20051;-72
2022/08/18 08:29:10;;;;;;;14.10;12.70;;;;;;;-145.18;100.00;46656.50;5030628;28;20064;-72
2022/08/18 08:31:53;;;;;;;14.73;11.23;;;;;;;-145.18;100.00;46664.31;5004706;28;20049;-72
2022/08/18 08:34:43;;;;;;;15.73;11.37;;;;;;;-145.18;100.00;46670.16;5029850;28;20074;-72
2022/08/18 08:37:14;;;;;;;12.73;10.30;;;;;;;-145.18;100.00;46668.22;5030617;28;20033;-72
2022/08/18 08:39:53;;;;;;;12.37;9.13;;;;;;;-145.18;100.00;46670.16;5010952;28;20397;-72
2022/08/18 08:42:41;;;;;;;13.47;12.17;;;;;;;-145.18;100.00;46664.31;5011367;28;20036;-72
2022/08/18 08:45:35;;;;;;;11.93;10.73;;;;;;;-145.18;100.00;46666.25;5010517;28;20045;-72
2022/08/18 08:48:08;;;;;;;14.10;10.63;;;;;;;-145.18;100.00;46670.16;5001169;28;20042;-72
2022/08/18 08:50:39;;;;;;;15.40;11.43;;;;;;;-145.18;100.00;46668.22;5011219;28;20118;-72
2022/08/18 08:53:19;;;;;;;11.67;10.40;;;;;;;-145.18;100.00;46668.22;5010424;28;20367;-72
2022/08/18 08:55:49;;;;;;;8.53;7.30;;;;;;;-145.18;100.00;46668.22;5012198;28;20061;-72
2022/08/18 08:58:22;;;;;;;7.07;6.07;;;;;;;-145.18;100.00;46674.06;5030058;28;20037;-72
2022/08/18 09:00:49;;;;;;;8.13;6.80;;;;;;;-145.18;100.00;46676.03;5030625;28;20083;-72
2022/08/18 09:03:45;;;;;;;11.63;8.13;;;;;;;-145.18;100.00;46674.06;5029908;28;20132;-72
2022/08/18 09:06:21;;;;;;;8.87;7.97;;;;;;;-145.18;100.00;46672.13;5030700;28;20497;-72
2022/08/18 09:09:34;;;;;;;9.87;8.13;;;;;;;-145.18;100.00;46672.13;5029666;28;20497;-72
2022/08/18 09:12:43;;;;;;;8.90;7.70;;;;;;;-145.18;100.00;46677.97;4969037;28;20461;-72
2022/08/18 09:15:21;;;;;;;11.03;8.17;;;;;;;-145.18;100.00;46683.84;4968720;28;20145;-72
2022/08/18 09:17:52;;;;;;;9.90;7.80;;;;;;;-145.18;100.00;46685.78;5020598;28;20458;-72
2022/08/18 09:20:26;;;;;;;8.90;6.07;;;;;;;-145.18;100.00;46689.69;5029689;28;20030;-72
2022/08/18 09:22:59;;;;;;;5.87;5.03;;;;;;;-145.18;100.00;46685.78;5029522;28;20040;-72
2022/08/18 09:25:30;;;;;;;8.50;5.43;;;;;;;-145.18;100.00;46681.88;5029948;28;20562;-73
2022/08/18 09:28:15;;;;;;;8.87;5.23;;;;;;;-145.18;100.00;46685.78;5030207;28;20133;-72
2022/08/18 09:31:12;;;;;;;7.85;6.55;;;;;;;-145.18;100.00;46683.84;5030589;28;20040;-72
2022/08/18 09:33:43;;;;;;;8.43;5.95;;;;;;;-145.18;100.00;46681.88;5029684;28;20397;-72
2022/08/18 09:36:37;;;;;;;7.83;5.97;;;;;;;-145.18;100.00;46679.94;5030121;28;20069;-73
2022/08/18 09:42:13;;;;;;;7.40;6.70;;;;;;;-145.18;100.00;46689.69;5029558;28;20509;-72
2022/08/18 09:44:45;;;;;;;8.50;7.65;;;;;;;-145.18;100.00;46685.78;5030012;28;20032;-72
2022/08/18 09:47:12;;;;;;;8.37;7.10;;;;;;;-145.18;100.00;46691.66;5030177;28;20033;-72
2022/08/18 09:49:45;;;;;;;7.95;6.70;;;;;;;-145.18;100.00;46691.66;5029379;28;20033;-72
2022/08/18 09:52:19;;;;;;;7.93;7.13;;;;;;;-145.18;100.00;46691.66;5030097;28;20105;-72
2022/08/18 09:54:52;;;;;;;8.67;6.67;;;;;;;-145.18;100.00;46687.75;5029880;28;20033;-72
2022/08/18 09:57:29;;;;;;;6.03;5.30;;;;;;;-145.18;100.00;46685.78;5030025;28;20389;-72
2022/08/18 09:59:56;;;;;;;8.47;5.60;;;;;;;-145.18;100.00;46687.75;5029459;28;20030;-72
2022/08/18 10:02:26;;;;;;;8.13;5.60;;;;;;;-145.18;100.00;46691.66;5012252;28;20030;-72
2022/08/18 10:05:14;;;;;;;7.13;5.27;;;;;;;-145.18;100.00;46656.50;5029272;28;20049;-72
2022/08/18 10:07:47;;;;;;;8.55;4.70;;;;;;;-145.18;100.00;46572.50;5030143;28;20034;-72
2022/08/18 10:10:38;;;;;;;6.65;4.00;;;;;;;-145.18;100.00;46572.50;5029886;28;20037;-72
2022/08/18 10:13:41;;;;;;;4.78;4.20;;;;;;;-145.18;100.00;46560.78;5029962;28;20037;-72
2022/08/18 10:16:12;;;;;;;6.10;4.78;;;;;;;-145.18;100.00;46562.72;5031030;28;20060;-72
2022/08/18 10:18:53;;;;;;;7.78;4.40;;;;;;;-145.18;100.00;46554.91;5014752;28;20415;-72
2022/08/18 10:21:28;;;;;;;5.20;4.63;;;;;;;-145.18;100.00;46543.19;5033759;28;20033;-72
2022/08/18 10:24:16;;;;;;;6.28;4.78;;;;;;;-145.18;100.00;46566.63;5033119;28;20034;-73
2022/08/18 10:26:41;;;;;;;6.28;5.22;;;;;;;-145.18;100.00;46549.06;5033322;28;20030;-72
2022/08/18 10:29:11;;;;;;;6.95;5.57;;;;;;;-145.18;100.00;46560.78;5032381;28;20048;-72
2022/08/18 10:31:58;;;;;;;7.13;5.68;;;;;;;-145.18;100.00;46582.25;5033879;28;20029;-72
2022/08/18 10:34:49;;;;;;;6.25;5.22;;;;;;;-145.18;100.00;46576.41;5033116;28;20063;-73
2022/08/18 10:37:17;;;;;;;6.00;5.40;;;;;;;-145.18;100.00;46576.41;5033284;28;20168;-73
2022/08/18 10:39:50;;;;;;;8.77;5.15;;;;;;;-145.18;100.00;46562.72;5033289;28;20025;-73
2022/08/18 10:42:26;;;;;;;6.95;4.25;;;;;;;-145.18;100.00;46570.53;5033146;28;20025;-73
2022/08/18 10:45:01;;;;;;;8.18;4.60;;;;;;;-145.18;100.00;46566.63;5032855;28;20096;-73
2022/08/18 10:47:29;;;;;;;6.03;4.55;;;;;;;-145.18;100.00;46554.91;5033500;28;20030;-73
2022/08/18 10:49:58;;;;;;;6.35;4.60;;;;;;;-145.18;100.00;46551.00;5032511;28;20030;-73
2022/08/18 10:52:51;;;;;;;4.97;4.07;;;;;;;-145.18;100.00;46558.81;5033338;28;20359;-73
2022/08/18 10:55:58;;;;;;;6.43;5.10;;;;;;;-145.18;100.00;46556.88;5033344;28;20021;-73
2022/08/18 10:58:32;;;;;;;6.38;4.90;;;;;;;-145.18;100.00;46562.72;5031366;28;20490;-73
2022/08/18 11:01:16;;;;;;;5.70;4.28;;;;;;;-145.18;100.00;46517.81;5032933;28;20026;-73
2022/08/18 11:04:07;;;;;;;6.90;4.60;;;;;;;-145.18;100.00;46574.44;5032669;28;20040;-73
2022/08/18 11:06:42;;;;;;;6.15;4.85;;;;;;;-145.18;100.00;46593.97;5013198;28;20378;-73
2022/08/18 11:09:09;;;;;;;7.35;4.97;;;;;;;-145.18;100.00;46580.31;5012825;28;20125;-73
2022/08/18 11:11:42;;;;;;;7.05;5.50;;;;;;;-145.18;100.00;46566.63;5012997;28;20080;-74
2022/08/18 11:14:20;;;;;;;6.82;6.13;;;;;;;-145.18;100.00;46578.34;5012739;28;20029;-74
2022/08/18 11:17:04;;;;;;;7.20;6.50;;;;;;;-145.18;100.00;46576.41;5012804;28;20032;-73
2022/08/18 11:19:39;;;;;;;7.05;5.57;;;;;;;-145.18;100.00;46578.34;5012701;28;20030;-73
2022/08/18 11:22:05;;;;;;;7.50;5.65;;;;;;;-145.18;100.00;46570.53;5012892;28;20025;-73
2022/08/18 11:24:34;;;;;;;7.07;5.85;;;;;;;-145.18;100.00;46572.50;5012720;28;20048;-74
2022/08/18 11:27:17;;;;;;;7.10;5.80;;;;;;;-145.18;100.00;46568.59;5012348;28;20030;-74
2022/08/18 11:29:43;;;;;;;9.03;5.57;;;;;;;-145.18;100.00;46568.59;5012706;28;20022;-74
2022/08/18 11:32:14;;;;;;;8.10;5.40;;;;;;;-145.18;100.00;46572.50;5012763;28;20582;-74
2022/08/18 11:34:44;;;;;;;8.20;5.57;;;;;;;-145.18;100.00;46564.69;4994708;28;20061;-74
2022/08/18 11:37:22;;;;;;;7.80;5.57;;;;;;;-145.18;100.00;46570.53;5012839;28;20034;-74
2022/08/18 11:39:51;;;;;;;8.45;5.63;;;;;;;-145.18;100.00;46566.63;5012189;28;20022;-74
2022/08/18 11:42:18;;;;;;;7.45;5.53;;;;;;;-145.18;100.00;46568.59;5012655;28;20026;-74